createdAt,value
2022-12-14T00:04:43.321Z,99410.44
2022-12-14T00:09:47.199Z,99394.84
2022-12-14T00:14:50.012Z,99401.81
2022-12-14T00:19:54.889Z,99386.69
2022-12-14T00:24:57.749Z,99385.41
2022-12-14T00:30:00.695Z,99372.59
2022-12-14T00:35:05.202Z,99366.00
2022-12-14T00:40:10.411Z,99363.31
2022-12-14T00:45:13.172Z,99349.81
2022-12-14T00:50:17.469Z,99347.59
2022-12-14T00:55:20.306Z,99344.69
2022-12-14T01:00:23.163Z,99339.53
2022-12-14T01:05:27.465Z,99345.69
2022-12-14T01:10:30.459Z,99347.19
2022-12-14T01:15:35.831Z,99347.56
2022-12-14T01:20:40.000Z,99345.22
2022-12-14T01:25:42.748Z,99340.59
2022-12-14T01:30:45.514Z,99345.38
2022-12-14T01:35:49.624Z,99354.16
2022-12-14T01:40:58.454Z,99353.44
2022-12-14T01:46:01.228Z,99355.63
2022-12-14T01:51:05.699Z,99340.84
2022-12-14T01:56:08.908Z,99338.50
2022-12-14T02:01:12.604Z,99339.00
2022-12-14T02:06:22.036Z,99335.81
2022-12-14T02:11:34.007Z,99326.19
2022-12-14T02:16:36.901Z,99316.66
2022-12-14T02:22:02.925Z,99309.06
2022-12-14T02:27:19.101Z,99301.38
2022-12-14T02:32:38.517Z,99300.88
2022-12-14T02:37:53.232Z,99300.25
2022-12-14T02:43:08.349Z,99286.22
2022-12-14T02:48:18.279Z,99286.59
2022-12-14T02:53:27.921Z,99284.97
2022-12-14T02:58:36.020Z,99267.44
2022-12-14T03:03:40.423Z,99273.88
2022-12-14T03:08:47.240Z,99272.28
2022-12-14T03:13:54.687Z,99262.63
2022-12-14T03:19:04.347Z,99263.88
2022-12-14T03:24:12.469Z,99260.44
2022-12-14T03:29:21.171Z,99241.91
2022-12-14T03:34:32.057Z,99235.91
2022-12-14T03:39:36.867Z,99237.59
2022-12-14T03:44:49.435Z,99236.16
2022-12-14T03:50:02.075Z,99227.44
2022-12-14T03:55:21.423Z,99226.81
2022-12-14T04:00:26.249Z,99226.81
2022-12-14T04:05:37.524Z,99221.72
2022-12-14T04:11:02.991Z,99219.25
2022-12-14T04:16:27.739Z,99208.66
2022-12-14T04:21:40.168Z,99199.97
2022-12-14T04:26:50.235Z,99181.19
2022-12-14T04:32:00.160Z,99174.25
2022-12-14T04:37:09.931Z,99164.59
2022-12-14T04:42:17.100Z,99161.19
2022-12-14T04:47:20.957Z,99151.44
2022-12-14T04:52:29.649Z,99148.97
2022-12-14T04:57:37.473Z,99143.75
2022-12-14T05:03:01.386Z,99134.13
2022-12-14T05:08:12.594Z,99123.88
2022-12-14T05:13:19.800Z,99107.19
2022-12-14T05:18:23.175Z,99107.78
2022-12-14T05:23:27.642Z,99107.75
2022-12-14T05:28:30.589Z,99105.06
2022-12-14T05:33:33.372Z,99081.97
2022-12-14T05:38:37.563Z,99069.63
2022-12-14T05:43:41.392Z,99071.53
2022-12-14T05:48:48.991Z,99068.22
2022-12-14T05:53:53.651Z,99065.88
2022-12-14T05:58:56.425Z,99067.81
2022-12-14T06:03:59.293Z,99069.13
2022-12-14T06:09:07.091Z,99078.50
2022-12-14T06:14:11.380Z,99070.06
2022-12-14T06:19:15.747Z,99065.13
2022-12-14T06:24:19.887Z,99056.69
2022-12-14T06:29:22.758Z,99044.69
2022-12-14T06:34:28.654Z,99040.72
2022-12-14T06:39:33.105Z,99039.50
2022-12-14T06:44:35.990Z,99025.66
2022-12-14T06:49:38.765Z,99023.53
2022-12-14T06:54:42.983Z,99022.28
2022-12-14T06:59:45.721Z,99013.97
2022-12-14T07:04:48.516Z,99006.59
2022-12-14T07:09:52.786Z,99009.88
2022-12-14T07:14:56.093Z,98997.13
2022-12-14T07:19:58.826Z,98998.72
2022-12-14T07:25:03.209Z,99000.13
2022-12-14T07:30:07.862Z,98989.09
2022-12-14T07:35:16.393Z,98987.28
2022-12-14T07:40:21.441Z,98973.97
2022-12-14T07:45:25.502Z,98966.28
2022-12-14T07:50:28.663Z,98960.47
2022-12-14T07:55:35.872Z,98962.97
2022-12-14T08:00:38.874Z,98955.44
2022-12-14T08:05:41.788Z,98943.66
2022-12-14T08:10:49.486Z,98937.13
2022-12-14T08:15:52.301Z,98938.63
2022-12-14T08:20:55.069Z,98930.25
2022-12-14T08:26:01.303Z,98922.59
2022-12-14T08:31:09.114Z,98913.38
2022-12-14T08:36:14.126Z,98904.84
2022-12-14T08:41:18.273Z,98894.47
2022-12-14T08:46:30.671Z,98899.38
2022-12-14T08:51:33.648Z,98889.16
2022-12-14T08:56:38.842Z,98883.22
2022-12-14T09:01:42.289Z,98881.94
2022-12-14T09:06:45.218Z,98887.69
2022-12-14T09:11:49.325Z,98885.25
2022-12-14T09:16:52.363Z,98869.41
2022-12-14T09:21:56.243Z,98861.59
2022-12-14T09:27:01.799Z,98853.00
2022-12-14T09:32:04.955Z,98839.66
2022-12-14T09:37:07.804Z,98837.13
2022-12-14T09:42:28.960Z,98843.63
2022-12-14T09:47:38.985Z,98838.81
2022-12-14T09:52:46.471Z,98824.97
2022-12-14T09:57:54.959Z,98832.88
2022-12-14T10:03:21.156Z,98822.66
2022-12-14T10:08:29.518Z,98822.31
2022-12-14T10:13:46.027Z,98806.03
2022-12-14T10:19:11.642Z,98792.97
2022-12-14T10:24:20.935Z,98787.19
2022-12-14T10:29:32.299Z,98779.50
2022-12-14T10:34:36.175Z,98779.25
2022-12-14T10:39:49.766Z,98768.47
2022-12-14T10:45:39.204Z,98778.38
2022-12-14T10:50:40.035Z,98773.44
2022-12-14T10:55:45.290Z,98779.59
2022-12-14T11:00:53.964Z,98758.06
2022-12-14T11:06:01.812Z,98750.97
2022-12-14T11:11:13.982Z,98757.50
2022-12-14T11:16:37.466Z,98762.22
2022-12-14T11:21:40.748Z,98759.88
2022-12-14T11:26:44.956Z,98746.91
2022-12-14T11:31:52.437Z,98749.19
2022-12-14T11:36:55.200Z,98739.16
2022-12-14T11:42:02.407Z,98734.38
2022-12-14T11:47:13.537Z,98737.50
2022-12-14T11:52:19.731Z,98733.69
2022-12-14T11:57:29.129Z,98726.34
2022-12-14T12:02:36.268Z,98708.97
2022-12-14T12:07:43.327Z,98714.19
2022-12-14T12:12:54.581Z,98721.16
2022-12-14T12:18:06.048Z,98716.38
2022-12-14T12:23:15.402Z,98716.09
2022-12-14T12:28:25.321Z,98713.38
2022-12-14T12:33:36.105Z,98707.31
2022-12-14T12:38:50.338Z,98700.38
2022-12-14T12:43:58.306Z,98700.09
2022-12-14T12:49:06.971Z,98697.28
2022-12-14T12:54:17.392Z,98694.44
2022-12-14T12:59:24.280Z,98682.59
2022-12-14T13:04:34.498Z,98685.00
2022-12-14T13:09:43.222Z,98694.63
2022-12-14T13:14:50.241Z,98691.78
2022-12-14T13:19:57.500Z,98697.03
2022-12-14T13:25:06.511Z,98685.31
2022-12-14T13:30:22.875Z,98681.63
2022-12-14T13:35:43.666Z,98687.13
2022-12-14T13:41:16.481Z,98699.00
2022-12-14T13:46:23.569Z,98685.84
2022-12-14T13:51:31.805Z,98680.06
2022-12-14T13:56:38.311Z,98677.63
2022-12-14T14:01:57.755Z,98669.72
2022-12-14T14:07:33.911Z,98667.72
2022-12-14T14:12:45.601Z,98670.00
2022-12-14T14:17:52.435Z,98672.13
2022-12-14T14:23:28.456Z,98662.94
2022-12-14T14:28:33.226Z,98658.84
2022-12-14T14:33:46.130Z,98659.56
2022-12-14T14:38:50.882Z,98653.34
2022-12-14T14:43:59.947Z,98653.91
2022-12-14T14:49:03.015Z,98654.31
2022-12-14T15:00:02.666Z,98655.13
2022-12-14T15:10:35.389Z,98652.31
2022-12-14T15:15:45.201Z,98644.94
2022-12-14T15:20:58.887Z,98658.81
2022-12-14T15:26:03.570Z,98662.66
2022-12-14T15:31:08.527Z,98668.06
2022-12-14T15:36:17.375Z,98674.19
2022-12-14T15:41:20.928Z,98670.38
2022-12-14T15:46:28.366Z,98673.66
2022-12-14T15:51:34.128Z,98676.31
2022-12-14T15:56:40.665Z,98669.94
2022-12-14T16:01:53.637Z,98659.47
2022-12-14T16:07:09.075Z,98665.25
2022-12-14T16:12:20.719Z,98664.84
2022-12-14T16:17:30.593Z,98671.63
2022-12-14T16:22:34.061Z,98674.69
2022-12-14T16:27:40.352Z,98687.69
2022-12-14T16:32:49.761Z,98684.81
2022-12-14T16:37:55.670Z,98691.84
2022-12-14T16:42:58.581Z,98686.59
2022-12-14T16:48:08.242Z,98689.25
2022-12-14T16:53:17.398Z,98684.66
2022-12-14T16:58:20.147Z,98691.00
2022-12-14T17:03:24.860Z,98681.69
2022-12-14T17:08:28.197Z,98692.44
2022-12-14T17:13:31.407Z,98693.81
2022-12-14T17:18:39.499Z,98702.91
2022-12-14T17:23:45.158Z,98707.44
2022-12-14T17:28:47.934Z,98710.31
2022-12-14T17:33:53.881Z,98713.28
2022-12-14T17:38:56.793Z,98706.50
2022-12-14T17:43:59.623Z,98714.75
2022-12-14T17:49:06.620Z,98715.19
2022-12-14T17:54:15.648Z,98718.69
2022-12-14T17:59:18.438Z,98719.47
2022-12-14T18:04:22.585Z,98714.75
2022-12-14T18:09:25.319Z,98718.63
2022-12-14T18:14:28.156Z,98724.63
2022-12-14T18:19:33.973Z,98728.94
2022-12-14T18:24:36.841Z,98731.91
2022-12-14T18:29:39.692Z,98731.53
2022-12-14T18:34:43.838Z,98732.38
2022-12-14T18:39:49.515Z,98722.53
2022-12-14T18:44:52.410Z,98724.84
2022-12-14T18:49:57.676Z,98715.19
2022-12-14T18:55:00.581Z,98715.66
2022-12-14T19:00:05.077Z,98717.47
2022-12-14T19:05:10.394Z,98727.91
2022-12-14T19:10:17.932Z,98732.97
2022-12-14T19:15:23.999Z,98734.25
2022-12-14T19:20:29.506Z,98750.59
2022-12-14T19:25:32.782Z,98758.84
2022-12-14T19:30:35.838Z,98749.66
2022-12-14T19:35:42.646Z,98750.19
2022-12-14T19:40:47.260Z,98745.38
2022-12-14T19:45:50.221Z,98747.53
2022-12-14T19:50:54.404Z,98764.25
2022-12-14T19:55:57.247Z,98762.16
2022-12-14T20:01:00.383Z,98765.25
2022-12-14T20:06:05.815Z,98767.25
2022-12-14T20:11:10.343Z,98773.50
2022-12-14T20:16:17.365Z,98774.63
2022-12-14T20:21:23.020Z,98777.16
2022-12-14T20:26:26.538Z,98781.41
2022-12-14T20:31:29.316Z,98783.13
2022-12-14T20:36:33.814Z,98783.13
2022-12-14T20:41:36.746Z,98784.25
2022-12-14T20:46:42.205Z,98802.00
2022-12-14T20:51:47.573Z,98790.50
2022-12-14T20:56:50.406Z,98800.28
2022-12-14T21:01:56.125Z,98813.22
2022-12-14T21:07:00.925Z,98814.06
2022-12-14T21:12:21.980Z,98817.72
2022-12-14T21:17:26.748Z,98822.13
2022-12-14T21:22:31.394Z,98826.81
2022-12-14T21:27:38.155Z,98826.81
2022-12-14T21:32:41.338Z,98830.66
2022-12-14T21:37:45.521Z,98838.56
2022-12-14T21:42:50.466Z,98837.88
2022-12-14T21:47:53.364Z,98837.03
2022-12-14T21:52:57.455Z,98843.69
2022-12-14T21:58:18.493Z,98853.19
2022-12-14T22:03:21.530Z,98859.44
2022-12-14T22:08:26.033Z,98872.91
2022-12-14T22:13:29.132Z,98864.81
2022-12-14T22:18:32.155Z,98875.34
2022-12-14T22:23:42.868Z,98871.22
2022-12-14T22:28:46.579Z,98882.16
2022-12-14T22:33:50.143Z,98881.41
2022-12-14T22:38:57.228Z,98884.41
2022-12-14T22:43:59.960Z,98892.50
2022-12-14T22:49:02.767Z,98888.38
2022-12-14T22:54:07.171Z,98895.75
2022-12-14T22:59:16.821Z,98892.06
2022-12-14T23:04:19.700Z,98898.56
2022-12-14T23:09:41.665Z,98893.59
2022-12-14T23:15:01.839Z,98890.91
2022-12-14T23:20:22.851Z,98893.47
2022-12-14T23:25:44.373Z,98891.47
2022-12-14T23:31:04.495Z,98898.59
2022-12-14T23:36:25.375Z,98900.84
2022-12-14T23:41:47.013Z,98910.88
2022-12-14T23:47:07.277Z,98909.03
2022-12-14T23:52:27.336Z,98909.75
2022-12-14T23:57:48.753Z,98905.81
